sensor_id;sensor_type;location;lat;lon;timestamp;P1;durP1;ratioP1;P2;durP2;ratioP2
20711;SDS011;10517;50.742;4.224;2022-08-19T00:00:13;15.18;;;11.65;;
20711;SDS011;10517;50.742;4.224;2022-08-19T00:02:39;14.65;;;11.05;;
20711;SDS011;10517;50.742;4.224;2022-08-19T00:05:06;16.20;;;11.57;;
20711;SDS011;10517;50.742;4.224;2022-08-19T00:07:32;16.30;;;11.15;;
20711;SDS011;10517;50.742;4.224;2022-08-19T00:09:58;13.35;;;10.32;;
20711;SDS011;10517;50.742;4.224;2022-08-19T00:12:24;17.13;;;12.25;;
20711;SDS011;10517;50.742;4.224;2022-08-19T00:14:49;13.80;;;10.65;;
20711;SDS011;10517;50.742;4.224;2022-08-19T00:17:15;15.60;;;12.40;;
20711;SDS011;10517;50.742;4.224;2022-08-19T00:19:40;15.23;;;10.95;;
20711;SDS011;10517;50.742;4.224;2022-08-19T00:22:06;15.80;;;11.90;;
20711;SDS011;10517;50.742;4.224;2022-08-19T00:24:34;16.65;;;11.32;;
20711;SDS011;10517;50.742;4.224;2022-08-19T00:27:00;16.52;;;12.27;;
20711;SDS011;10517;50.742;4.224;2022-08-19T00:29:27;17.10;;;11.90;;
20711;SDS011;10517;50.742;4.224;2022-08-19T00:31:53;18.98;;;12.98;;
20711;SDS011;10517;50.742;4.224;2022-08-19T00:34:20;17.50;;;12.45;;
20711;SDS011;10517;50.742;4.224;2022-08-19T00:36:47;15.07;;;11.40;;
20711;SDS011;10517;50.742;4.224;2022-08-19T00:39:13;13.25;;;11.15;;
20711;SDS011;10517;50.742;4.224;2022-08-19T00:41:43;18.83;;;11.55;;
20711;SDS011;10517;50.742;4.224;2022-08-19T00:44:12;18.52;;;12.13;;
20711;SDS011;10517;50.742;4.224;2022-08-19T00:46:45;14.40;;;11.90;;
20711;SDS011;10517;50.742;4.224;2022-08-19T00:49:14;16.42;;;12.45;;
20711;SDS011;10517;50.742;4.224;2022-08-19T00:51:45;15.88;;;11.77;;
20711;SDS011;10517;50.742;4.224;2022-08-19T00:54:13;22.20;;;12.20;;
20711;SDS011;10517;50.742;4.224;2022-08-19T00:56:40;19.08;;;13.48;;
20711;SDS011;10517;50.742;4.224;2022-08-19T00:59:06;17.33;;;12.90;;
20711;SDS011;10517;50.742;4.224;2022-08-19T01:01:35;19.92;;;13.00;;
20711;SDS011;10517;50.742;4.224;2022-08-19T01:04:02;17.88;;;13.68;;
20711;SDS011;10517;50.742;4.224;2022-08-19T01:06:28;18.38;;;13.43;;
20711;SDS011;10517;50.742;4.224;2022-08-19T01:08:57;17.30;;;11.98;;
20711;SDS011;10517;50.742;4.224;2022-08-19T01:11:23;18.73;;;11.88;;
20711;SDS011;10517;50.742;4.224;2022-08-19T01:13:50;17.40;;;12.88;;
20711;SDS011;10517;50.742;4.224;2022-08-19T01:16:18;18.95;;;12.93;;
20711;SDS011;10517;50.742;4.224;2022-08-19T01:18:46;20.50;;;15.13;;
20711;SDS011;10517;50.742;4.224;2022-08-19T01:21:16;17.38;;;14.35;;
20711;SDS011;10517;50.742;4.224;2022-08-19T01:23:47;20.67;;;15.15;;
20711;SDS011;10517;50.742;4.224;2022-08-19T01:26:14;19.77;;;14.35;;
20711;SDS011;10517;50.742;4.224;2022-08-19T01:28:43;24.83;;;15.18;;
20711;SDS011;10517;50.742;4.224;2022-08-19T01:31:11;23.00;;;14.40;;
20711;SDS011;10517;50.742;4.224;2022-08-19T01:33:39;21.92;;;13.73;;
20711;SDS011;10517;50.742;4.224;2022-08-19T01:36:09;22.98;;;14.25;;
20711;SDS011;10517;50.742;4.224;2022-08-19T01:38:38;18.95;;;13.60;;
20711;SDS011;10517;50.742;4.224;2022-08-19T01:41:07;24.38;;;15.40;;
20711;SDS011;10517;50.742;4.224;2022-08-19T01:43:33;20.50;;;13.75;;
20711;SDS011;10517;50.742;4.224;2022-08-19T01:45:59;21.17;;;13.73;;
20711;SDS011;10517;50.742;4.224;2022-08-19T01:48:25;19.70;;;13.07;;
20711;SDS011;10517;50.742;4.224;2022-08-19T01:50:51;21.77;;;13.85;;
20711;SDS011;10517;50.742;4.224;2022-08-19T01:53:17;21.83;;;13.23;;
20711;SDS011;10517;50.742;4.224;2022-08-19T01:55:43;21.58;;;14.30;;
20711;SDS011;10517;50.742;4.224;2022-08-19T01:58:11;22.63;;;13.90;;
20711;SDS011;10517;50.742;4.224;2022-08-19T02:00:39;19.60;;;13.32;;
20711;SDS011;10517;50.742;4.224;2022-08-19T02:03:06;20.05;;;13.15;;
20711;SDS011;10517;50.742;4.224;2022-08-19T02:05:34;19.20;;;12.80;;
20711;SDS011;10517;50.742;4.224;2022-08-19T02:07:59;25.17;;;13.93;;
20711;SDS011;10517;50.742;4.224;2022-08-19T02:10:25;21.33;;;12.23;;
20711;SDS011;10517;50.742;4.224;2022-08-19T02:12:51;21.50;;;13.52;;
20711;SDS011;10517;50.742;4.224;2022-08-19T02:15:18;15.65;;;11.45;;
20711;SDS011;10517;50.742;4.224;2022-08-19T02:17:44;19.77;;;12.77;;
20711;SDS011;10517;50.742;4.224;2022-08-19T02:20:11;17.00;;;11.48;;
20711;SDS011;10517;50.742;4.224;2022-08-19T02:22:38;16.30;;;12.15;;
20711;SDS011;10517;50.742;4.224;2022-08-19T02:25:06;17.30;;;12.02;;
20711;SDS011;10517;50.742;4.224;2022-08-19T02:27:32;21.42;;;12.85;;
20711;SDS011;10517;50.742;4.224;2022-08-19T02:29:58;19.67;;;12.65;;
20711;SDS011;10517;50.742;4.224;2022-08-19T02:32:24;18.88;;;12.60;;
20711;SDS011;10517;50.742;4.224;2022-08-19T02:34:50;17.75;;;11.65;;
20711;SDS011;10517;50.742;4.224;2022-08-19T02:37:15;18.33;;;11.50;;
20711;SDS011;10517;50.742;4.224;2022-08-19T02:40:00;19.08;;;12.25;;
20711;SDS011;10517;50.742;4.224;2022-08-19T02:42:26;16.35;;;11.63;;
20711;SDS011;10517;50.742;4.224;2022-08-19T02:44:52;17.65;;;11.77;;
20711;SDS011;10517;50.742;4.224;2022-08-19T02:47:20;19.23;;;11.20;;
20711;SDS011;10517;50.742;4.224;2022-08-19T02:49:46;17.15;;;11.18;;
20711;SDS011;10517;50.742;4.224;2022-08-19T02:52:14;18.17;;;11.25;;
20711;SDS011;10517;50.742;4.224;2022-08-19T02:54:40;17.42;;;10.90;;
20711;SDS011;10517;50.742;4.224;2022-08-19T02:57:06;16.83;;;11.50;;
20711;SDS011;10517;50.742;4.224;2022-08-19T02:59:32;16.17;;;11.02;;
20711;SDS011;10517;50.742;4.224;2022-08-19T03:01:58;18.98;;;11.68;;
20711;SDS011;10517;50.742;4.224;2022-08-19T03:04:24;20.95;;;11.90;;
20711;SDS011;10517;50.742;4.224;2022-08-19T03:06:50;16.60;;;11.20;;
20711;SDS011;10517;50.742;4.224;2022-08-19T03:09:16;18.50;;;10.60;;
20711;SDS011;10517;50.742;4.224;2022-08-19T03:11:44;20.05;;;11.90;;
20711;SDS011;10517;50.742;4.224;2022-08-19T03:14:10;15.48;;;10.50;;
20711;SDS011;10517;50.742;4.224;2022-08-19T03:16:41;19.35;;;11.88;;
20711;SDS011;10517;50.742;4.224;2022-08-19T03:19:09;17.70;;;12.15;;
20711;SDS011;10517;50.742;4.224;2022-08-19T03:21:35;18.45;;;12.57;;
20711;SDS011;10517;50.742;4.224;2022-08-19T03:24:02;19.48;;;12.07;;
20711;SDS011;10517;50.742;4.224;2022-08-19T03:26:29;18.67;;;12.30;;
20711;SDS011;10517;50.742;4.224;2022-08-19T03:28:55;16.25;;;11.40;;
20711;SDS011;10517;50.742;4.224;2022-08-19T03:31:22;17.48;;;11.13;;
20711;SDS011;10517;50.742;4.224;2022-08-19T03:33:50;19.20;;;12.98;;
20711;SDS011;10517;50.742;4.224;2022-08-19T03:36:17;21.88;;;13.18;;
20711;SDS011;10517;50.742;4.224;2022-08-19T03:38:46;25.10;;;12.32;;
20711;SDS011;10517;50.742;4.224;2022-08-19T03:41:15;18.40;;;12.10;;
20711;SDS011;10517;50.742;4.224;2022-08-19T03:43:43;18.95;;;12.15;;
20711;SDS011;10517;50.742;4.224;2022-08-19T03:46:12;19.23;;;12.88;;
20711;SDS011;10517;50.742;4.224;2022-08-19T03:48:40;17.85;;;12.15;;
20711;SDS011;10517;50.742;4.224;2022-08-19T03:51:07;17.77;;;11.90;;
20711;SDS011;10517;50.742;4.224;2022-08-19T03:53:40;18.52;;;12.43;;
20711;SDS011;10517;50.742;4.224;2022-08-19T03:56:07;21.88;;;12.35;;
20711;SDS011;10517;50.742;4.224;2022-08-19T03:58:34;20.67;;;12.57;;
20711;SDS011;10517;50.742;4.224;2022-08-19T04:01:00;20.00;;;13.20;;
20711;SDS011;10517;50.742;4.224;2022-08-19T04:03:26;25.45;;;13.23;;
20711;SDS011;10517;50.742;4.224;2022-08-19T04:05:52;24.38;;;14.93;;
20711;SDS011;10517;50.742;4.224;2022-08-19T04:08:18;22.10;;;12.70;;
20711;SDS011;10517;50.742;4.224;2022-08-19T04:10:47;17.05;;;12.70;;
20711;SDS011;10517;50.742;4.224;2022-08-19T04:13:14;22.08;;;13.88;;
20711;SDS011;10517;50.742;4.224;2022-08-19T04:15:43;19.30;;;11.88;;
20711;SDS011;10517;50.742;4.224;2022-08-19T04:18:11;19.77;;;13.73;;
20711;SDS011;10517;50.742;4.224;2022-08-19T04:20:40;20.80;;;13.00;;
20711;SDS011;10517;50.742;4.224;2022-08-19T04:23:11;25.63;;;13.52;;
20711;SDS011;10517;50.742;4.224;2022-08-19T04:25:39;20.60;;;13.10;;
20711;SDS011;10517;50.742;4.224;2022-08-19T04:28:06;19.20;;;13.40;;
20711;SDS011;10517;50.742;4.224;2022-08-19T04:30:41;17.60;;;12.35;;
20711;SDS011;10517;50.742;4.224;2022-08-19T04:33:11;17.83;;;11.35;;
20711;SDS011;10517;50.742;4.224;2022-08-19T04:35:39;24.13;;;12.45;;
20711;SDS011;10517;50.742;4.224;2022-08-19T04:38:06;22.02;;;12.40;;
20711;SDS011;10517;50.742;4.224;2022-08-19T04:40:33;21.35;;;13.50;;
20711;SDS011;10517;50.742;4.224;2022-08-19T04:43:17;23.08;;;13.80;;
20711;SDS011;10517;50.742;4.224;2022-08-19T04:45:43;22.55;;;11.68;;
20711;SDS011;10517;50.742;4.224;2022-08-19T04:48:10;21.02;;;13.75;;
20711;SDS011;10517;50.742;4.224;2022-08-19T04:50:39;19.77;;;12.90;;
20711;SDS011;10517;50.742;4.224;2022-08-19T04:53:06;21.55;;;14.38;;
20711;SDS011;10517;50.742;4.224;2022-08-19T04:55:32;21.25;;;13.85;;
20711;SDS011;10517;50.742;4.224;2022-08-19T04:57:58;23.25;;;13.45;;
20711;SDS011;10517;50.742;4.224;2022-08-19T05:00:24;23.90;;;13.88;;
20711;SDS011;10517;50.742;4.224;2022-08-19T05:02:50;19.95;;;14.00;;
20711;SDS011;10517;50.742;4.224;2022-08-19T05:05:16;23.30;;;13.45;;
20711;SDS011;10517;50.742;4.224;2022-08-19T05:07:42;22.70;;;14.35;;
20711;SDS011;10517;50.742;4.224;2022-08-19T05:10:07;19.63;;;12.40;;
20711;SDS011;10517;50.742;4.224;2022-08-19T05:12:33;21.88;;;14.48;;
20711;SDS011;10517;50.742;4.224;2022-08-19T05:14:59;20.13;;;12.57;;
20711;SDS011;10517;50.742;4.224;2022-08-19T05:17:27;24.05;;;12.55;;
20711;SDS011;10517;50.742;4.224;2022-08-19T05:19:53;21.05;;;12.45;;
20711;SDS011;10517;50.742;4.224;2022-08-19T05:22:38;16.50;;;11.48;;
20711;SDS011;10517;50.742;4.224;2022-08-19T05:25:08;20.60;;;11.90;;
20711;SDS011;10517;50.742;4.224;2022-08-19T05:27:37;15.23;;;10.57;;
20711;SDS011;10517;50.742;4.224;2022-08-19T05:30:03;17.83;;;11.07;;
20711;SDS011;10517;50.742;4.224;2022-08-19T05:32:30;19.13;;;11.68;;
20711;SDS011;10517;50.742;4.224;2022-08-19T05:34:55;13.52;;;10.75;;
20711;SDS011;10517;50.742;4.224;2022-08-19T05:37:21;13.05;;;9.75;;
20711;SDS011;10517;50.742;4.224;2022-08-19T05:39:47;11.25;;;9.82;;
20711;SDS011;10517;50.742;4.224;2022-08-19T05:42:14;18.75;;;10.23;;
20711;SDS011;10517;50.742;4.224;2022-08-19T05:44:40;12.60;;;9.30;;
20711;SDS011;10517;50.742;4.224;2022-08-19T05:47:10;14.05;;;9.30;;
20711;SDS011;10517;50.742;4.224;2022-08-19T05:49:37;10.25;;;8.20;;
20711;SDS011;10517;50.742;4.224;2022-08-19T05:52:04;15.80;;;9.43;;
20711;SDS011;10517;50.742;4.224;2022-08-19T05:54:31;16.60;;;9.05;;
20711;SDS011;10517;50.742;4.224;2022-08-19T05:56:57;19.95;;;8.45;;
20711;SDS011;10517;50.742;4.224;2022-08-19T05:59:23;10.43;;;9.02;;
20711;SDS011;10517;50.742;4.224;2022-08-19T06:01:49;10.93;;;8.20;;
20711;SDS011;10517;50.742;4.224;2022-08-19T06:04:17;12.23;;;7.95;;
20711;SDS011;10517;50.742;4.224;2022-08-19T06:06:48;17.17;;;7.50;;
20711;SDS011;10517;50.742;4.224;2022-08-19T06:09:16;11.77;;;8.43;;
20711;SDS011;10517;50.742;4.224;2022-08-19T06:14:14;10.02;;;7.80;;
20711;SDS011;10517;50.742;4.224;2022-08-19T06:16:43;11.07;;;6.72;;
20711;SDS011;10517;50.742;4.224;2022-08-19T06:19:11;10.38;;;7.30;;
20711;SDS011;10517;50.742;4.224;2022-08-19T06:21:40;8.45;;;7.05;;
20711;SDS011;10517;50.742;4.224;2022-08-19T06:24:09;9.57;;;6.78;;
20711;SDS011;10517;50.742;4.224;2022-08-19T06:26:37;9.77;;;6.47;;
20711;SDS011;10517;50.742;4.224;2022-08-19T06:29:05;13.80;;;8.10;;
20711;SDS011;10517;50.742;4.224;2022-08-19T06:31:32;6.45;;;5.55;;
20711;SDS011;10517;50.742;4.224;2022-08-19T06:34:00;10.68;;;6.85;;
20711;SDS011;10517;50.742;4.224;2022-08-19T06:36:33;8.52;;;6.60;;
20711;SDS011;10517;50.742;4.224;2022-08-19T06:39:01;15.18;;;8.73;;
20711;SDS011;10517;50.742;4.224;2022-08-19T06:41:33;8.13;;;6.30;;
20711;SDS011;10517;50.742;4.224;2022-08-19T06:44:00;9.00;;;5.40;;
20711;SDS011;10517;50.742;4.224;2022-08-19T06:46:26;9.55;;;5.40;;
20711;SDS011;10517;50.742;4.224;2022-08-19T06:48:52;7.93;;;5.85;;
20711;SDS011;10517;50.742;4.224;2022-08-19T06:51:19;15.30;;;6.95;;
20711;SDS011;10517;50.742;4.224;2022-08-19T06:53:46;11.18;;;6.43;;
20711;SDS011;10517;50.742;4.224;2022-08-19T06:56:16;7.65;;;5.82;;
20711;SDS011;10517;50.742;4.224;2022-08-19T06:58:43;9.60;;;6.40;;
20711;SDS011;10517;50.742;4.224;2022-08-19T07:01:09;9.45;;;6.53;;
20711;SDS011;10517;50.742;4.224;2022-08-19T07:03:36;10.07;;;5.75;;
20711;SDS011;10517;50.742;4.224;2022-08-19T07:06:08;7.93;;;5.43;;
20711;SDS011;10517;50.742;4.224;2022-08-19T07:08:36;10.85;;;5.53;;
20711;SDS011;10517;50.742;4.224;2022-08-19T07:11:09;10.98;;;5.95;;
20711;SDS011;10517;50.742;4.224;2022-08-19T07:13:37;9.57;;;5.85;;
20711;SDS011;10517;50.742;4.224;2022-08-19T07:16:04;7.85;;;5.72;;
20711;SDS011;10517;50.742;4.224;2022-08-19T07:18:30;8.68;;;6.53;;
20711;SDS011;10517;50.742;4.224;2022-08-19T07:21:03;15.38;;;6.35;;
20711;SDS011;10517;50.742;4.224;2022-08-19T07:23:30;11.48;;;6.00;;
20711;SDS011;10517;50.742;4.224;2022-08-19T07:25:55;9.23;;;5.15;;
20711;SDS011;10517;50.742;4.224;2022-08-19T07:28:22;8.77;;;5.35;;
20711;SDS011;10517;50.742;4.224;2022-08-19T07:30:47;9.30;;;5.55;;
20711;SDS011;10517;50.742;4.224;2022-08-19T07:33:14;7.35;;;4.80;;
20711;SDS011;10517;50.742;4.224;2022-08-19T07:35:41;8.18;;;5.35;;
20711;SDS011;10517;50.742;4.224;2022-08-19T07:38:07;5.00;;;4.50;;
20711;SDS011;10517;50.742;4.224;2022-08-19T07:40:32;4.75;;;4.13;;
20711;SDS011;10517;50.742;4.224;2022-08-19T07:42:58;7.38;;;5.22;;
20711;SDS011;10517;50.742;4.224;2022-08-19T07:45:24;5.47;;;4.65;;
20711;SDS011;10517;50.742;4.224;2022-08-19T07:47:50;7.47;;;4.53;;
20711;SDS011;10517;50.742;4.224;2022-08-19T07:50:17;7.43;;;5.03;;
20711;SDS011;10517;50.742;4.224;2022-08-19T07:52:45;8.07;;;5.07;;
20711;SDS011;10517;50.742;4.224;2022-08-19T07:55:11;4.65;;;4.25;;
20711;SDS011;10517;50.742;4.224;2022-08-19T07:57:37;6.88;;;5.03;;
20711;SDS011;10517;50.742;4.224;2022-08-19T08:00:04;4.57;;;4.18;;
20711;SDS011;10517;50.742;4.224;2022-08-19T08:02:31;6.82;;;4.90;;
20711;SDS011;10517;50.742;4.224;2022-08-19T08:04:56;11.43;;;5.53;;
20711;SDS011;10517;50.742;4.224;2022-08-19T08:07:40;8.18;;;4.93;;
20711;SDS011;10517;50.742;4.224;2022-08-19T08:10:32;4.68;;;4.22;;
20711;SDS011;10517;50.742;4.224;2022-08-19T08:12:57;6.28;;;5.22;;
20711;SDS011;10517;50.742;4.224;2022-08-19T08:15:23;5.07;;;4.68;;
20711;SDS011;10517;50.742;4.224;2022-08-19T08:17:49;8.23;;;4.32;;
20711;SDS011;10517;50.742;4.224;2022-08-19T08:20:15;4.72;;;4.28;;
20711;SDS011;10517;50.742;4.224;2022-08-19T08:22:45;4.80;;;4.18;;
20711;SDS011;10517;50.742;4.224;2022-08-19T08:25:31;4.25;;;3.95;;
20711;SDS011;10517;50.742;4.224;2022-08-19T08:27:56;6.70;;;4.55;;
20711;SDS011;10517;50.742;4.224;2022-08-19T08:30:25;4.38;;;4.03;;
20711;SDS011;10517;50.742;4.224;2022-08-19T08:32:52;4.57;;;4.18;;
20711;SDS011;10517;50.742;4.224;2022-08-19T08:35:20;4.13;;;3.80;;
20711;SDS011;10517;50.742;4.224;2022-08-19T08:37:47;4.47;;;3.63;;
20711;SDS011;10517;50.742;4.224;2022-08-19T08:40:22;4.53;;;3.40;;
20711;SDS011;10517;50.742;4.224;2022-08-19T08:45:56;9.18;;;4.53;;
20711;SDS011;10517;50.742;4.224;2022-08-19T08:51:34;4.68;;;3.75;;
20711;SDS011;10517;50.742;4.224;2022-08-19T08:54:07;6.10;;;4.43;;
20711;SDS011;10517;50.742;4.224;2022-08-19T08:56:37;10.25;;;4.95;;
20711;SDS011;10517;50.742;4.224;2022-08-19T08:59:05;9.18;;;4.18;;
20711;SDS011;10517;50.742;4.224;2022-08-19T09:01:42;4.53;;;4.13;;
20711;SDS011;10517;50.742;4.224;2022-08-19T09:04:08;5.88;;;4.13;;
20711;SDS011;10517;50.742;4.224;2022-08-19T09:09:31;5.45;;;4.47;;
20711;SDS011;10517;50.742;4.224;2022-08-19T09:12:33;7.13;;;4.20;;
20711;SDS011;10517;50.742;4.224;2022-08-19T09:15:14;5.13;;;4.60;;
20711;SDS011;10517;50.742;4.224;2022-08-19T09:17:42;6.03;;;3.83;;
20711;SDS011;10517;50.742;4.224;2022-08-19T09:22:46;4.35;;;3.95;;
20711;SDS011;10517;50.742;4.224;2022-08-19T09:25:14;3.90;;;3.60;;
20711;SDS011;10517;50.742;4.224;2022-08-19T09:27:42;5.22;;;4.00;;
20711;SDS011;10517;50.742;4.224;2022-08-19T09:30:08;4.47;;;4.00;;
20711;SDS011;10517;50.742;4.224;2022-08-19T09:32:38;4.68;;;4.22;;
20711;SDS011;10517;50.742;4.224;2022-08-19T09:35:04;4.90;;;4.50;;
20711;SDS011;10517;50.742;4.224;2022-08-19T09:37:31;4.20;;;3.78;;
20711;SDS011;10517;50.742;4.224;2022-08-19T09:39:56;5.25;;;4.75;;
20711;SDS011;10517;50.742;4.224;2022-08-19T09:42:22;6.00;;;4.15;;
20711;SDS011;10517;50.742;4.224;2022-08-19T09:44:48;4.88;;;4.47;;
20711;SDS011;10517;50.742;4.224;2022-08-19T09:47:13;4.80;;;4.40;;
20711;SDS011;10517;50.742;4.224;2022-08-19T09:49:40;5.15;;;4.35;;
20711;SDS011;10517;50.742;4.224;2022-08-19T09:52:09;8.35;;;4.63;;
20711;SDS011;10517;50.742;4.224;2022-08-19T09:54:36;5.65;;;4.97;;
20711;SDS011;10517;50.742;4.224;2022-08-19T09:57:02;5.22;;;4.43;;
20711;SDS011;10517;50.742;4.224;2022-08-19T09:59:28;5.07;;;4.57;;
20711;SDS011;10517;50.742;4.224;2022-08-19T10:01:54;5.63;;;4.40;;
20711;SDS011;10517;50.742;4.224;2022-08-19T10:04:20;7.15;;;5.10;;
20711;SDS011;10517;50.742;4.224;2022-08-19T10:06:47;6.60;;;5.13;;
20711;SDS011;10517;50.742;4.224;2022-08-19T10:09:14;10.25;;;5.25;;
20711;SDS011;10517;50.742;4.224;2022-08-19T10:11:42;6.80;;;5.70;;
20711;SDS011;10517;50.742;4.224;2022-08-19T10:14:14;7.28;;;5.30;;
20711;SDS011;10517;50.742;4.224;2022-08-19T10:16:41;13.45;;;5.25;;
20711;SDS011;10517;50.742;4.224;2022-08-19T10:19:07;6.00;;;5.32;;
20711;SDS011;10517;50.742;4.224;2022-08-19T10:21:34;5.68;;;5.07;;
20711;SDS011;10517;50.742;4.224;2022-08-19T10:24:01;6.63;;;5.43;;
20711;SDS011;10517;50.742;4.224;2022-08-19T10:26:34;12.88;;;5.65;;
20711;SDS011;10517;50.742;4.224;2022-08-19T10:29:02;6.10;;;5.50;;
20711;SDS011;10517;50.742;4.224;2022-08-19T10:31:31;5.95;;;5.35;;
20711;SDS011;10517;50.742;4.224;2022-08-19T10:33:58;6.47;;;5.65;;
20711;SDS011;10517;50.742;4.224;2022-08-19T10:36:25;7.15;;;5.25;;
20711;SDS011;10517;50.742;4.224;2022-08-19T10:38:57;5.53;;;4.63;;
20711;SDS011;10517;50.742;4.224;2022-08-19T10:41:27;8.13;;;4.85;;
20711;SDS011;10517;50.742;4.224;2022-08-19T10:43:55;6.18;;;4.72;;
20711;SDS011;10517;50.742;4.224;2022-08-19T10:46:23;6.10;;;5.50;;
20711;SDS011;10517;50.742;4.224;2022-08-19T10:48:51;5.00;;;4.50;;
20711;SDS011;10517;50.742;4.224;2022-08-19T10:51:17;5.43;;;4.95;;
20711;SDS011;10517;50.742;4.224;2022-08-19T10:54:02;5.00;;;4.60;;
20711;SDS011;10517;50.742;4.224;2022-08-19T10:56:29;4.70;;;4.30;;
20711;SDS011;10517;50.742;4.224;2022-08-19T10:59:14;4.88;;;4.47;;
20711;SDS011;10517;50.742;4.224;2022-08-19T11:01:41;6.05;;;4.70;;
20711;SDS011;10517;50.742;4.224;2022-08-19T11:04:08;6.50;;;4.63;;
20711;SDS011;10517;50.742;4.224;2022-08-19T11:06:36;6.07;;;5.40;;
20711;SDS011;10517;50.742;4.224;2022-08-19T11:09:03;4.50;;;4.10;;
20711;SDS011;10517;50.742;4.224;2022-08-19T11:11:30;4.68;;;4.35;;
20711;SDS011;10517;50.742;4.224;2022-08-19T11:13:57;4.63;;;4.32;;
20711;SDS011;10517;50.742;4.224;2022-08-19T11:16:23;4.68;;;4.28;;
20711;SDS011;10517;50.742;4.224;2022-08-19T11:18:56;5.60;;;5.10;;
20711;SDS011;10517;50.742;4.224;2022-08-19T11:21:28;5.63;;;4.53;;
20711;SDS011;10517;50.742;4.224;2022-08-19T11:24:00;3.90;;;3.70;;
20711;SDS011;10517;50.742;4.224;2022-08-19T11:26:28;4.35;;;4.05;;
20711;SDS011;10517;50.742;4.224;2022-08-19T11:28:56;4.18;;;3.88;;
20711;SDS011;10517;50.742;4.224;2022-08-19T11:31:23;4.82;;;4.38;;
20711;SDS011;10517;50.742;4.224;2022-08-19T11:33:51;5.22;;;4.78;;
20711;SDS011;10517;50.742;4.224;2022-08-19T11:36:18;4.43;;;4.13;;
20711;SDS011;10517;50.742;4.224;2022-08-19T11:38:46;5.85;;;3.47;;
20711;SDS011;10517;50.742;4.224;2022-08-19T11:41:15;3.33;;;3.13;;
20711;SDS011;10517;50.742;4.224;2022-08-19T11:43:42;4.25;;;3.90;;
20711;SDS011;10517;50.742;4.224;2022-08-19T11:46:09;4.45;;;3.90;;
20711;SDS011;10517;50.742;4.224;2022-08-19T11:48:36;3.85;;;3.63;;
20711;SDS011;10517;50.742;4.224;2022-08-19T11:51:04;3.90;;;3.60;;
20711;SDS011;10517;50.742;4.224;2022-08-19T11:53:35;3.67;;;3.47;;
20711;SDS011;10517;50.742;4.224;2022-08-19T11:56:02;3.92;;;3.50;;
20711;SDS011;10517;50.742;4.224;2022-08-19T11:58:28;3.35;;;3.15;;
20711;SDS011;10517;50.742;4.224;2022-08-19T12:00:54;3.80;;;3.50;;
20711;SDS011;10517;50.742;4.224;2022-08-19T12:03:20;3.30;;;3.10;;
20711;SDS011;10517;50.742;4.224;2022-08-19T12:05:46;3.42;;;3.17;;
20711;SDS011;10517;50.742;4.224;2022-08-19T12:08:12;3.33;;;3.10;;
20711;SDS011;10517;50.742;4.224;2022-08-19T12:10:38;3.50;;;3.30;;
20711;SDS011;10517;50.742;4.224;2022-08-19T12:13:06;3.53;;;3.33;;
20711;SDS011;10517;50.742;4.224;2022-08-19T12:15:38;3.10;;;2.80;;
20711;SDS011;10517;50.742;4.224;2022-08-19T12:18:08;3.40;;;3.17;;
20711;SDS011;10517;50.742;4.224;2022-08-19T12:20:35;4.00;;;3.70;;
20711;SDS011;10517;50.742;4.224;2022-08-19T12:23:02;3.20;;;3.00;;
20711;SDS011;10517;50.742;4.224;2022-08-19T12:25:32;4.43;;;3.42;;
20711;SDS011;10517;50.742;4.224;2022-08-19T12:27:59;3.53;;;3.33;;
20711;SDS011;10517;50.742;4.224;2022-08-19T12:30:24;3.20;;;3.00;;
20711;SDS011;10517;50.742;4.224;2022-08-19T12:32:50;2.80;;;2.70;;
20711;SDS011;10517;50.742;4.224;2022-08-19T12:35:16;2.83;;;2.63;;
20711;SDS011;10517;50.742;4.224;2022-08-19T12:37:45;2.83;;;2.72;;
20711;SDS011;10517;50.742;4.224;2022-08-19T12:40:12;3.17;;;2.97;;
20711;SDS011;10517;50.742;4.224;2022-08-19T12:42:39;3.47;;;3.17;;
20711;SDS011;10517;50.742;4.224;2022-08-19T12:45:09;3.38;;;3.17;;
20711;SDS011;10517;50.742;4.224;2022-08-19T12:47:36;3.95;;;2.55;;
20711;SDS011;10517;50.742;4.224;2022-08-19T12:50:01;2.80;;;2.70;;
20711;SDS011;10517;50.742;4.224;2022-08-19T12:52:28;2.88;;;2.30;;
20711;SDS011;10517;50.742;4.224;2022-08-19T12:54:55;4.80;;;2.75;;
20711;SDS011;10517;50.742;4.224;2022-08-19T12:57:23;2.80;;;2.70;;
20711;SDS011;10517;50.742;4.224;2022-08-19T12:59:53;6.43;;;3.22;;
20711;SDS011;10517;50.742;4.224;2022-08-19T13:02:19;3.28;;;2.97;;
20711;SDS011;10517;50.742;4.224;2022-08-19T13:04:45;2.78;;;2.60;;
20711;SDS011;10517;50.742;4.224;2022-08-19T13:07:10;3.00;;;2.80;;
20711;SDS011;10517;50.742;4.224;2022-08-19T13:09:36;3.00;;;2.80;;
20711;SDS011;10517;50.742;4.224;2022-08-19T13:12:02;2.65;;;2.55;;
20711;SDS011;10517;50.742;4.224;2022-08-19T13:14:32;3.13;;;2.90;;
20711;SDS011;10517;50.742;4.224;2022-08-19T13:16:58;3.17;;;2.97;;
20711;SDS011;10517;50.742;4.224;2022-08-19T13:19:24;2.60;;;2.50;;
20711;SDS011;10517;50.742;4.224;2022-08-19T13:21:50;2.70;;;2.50;;
20711;SDS011;10517;50.742;4.224;2022-08-19T13:24:16;2.80;;;2.60;;
20711;SDS011;10517;50.742;4.224;2022-08-19T13:26:42;2.85;;;2.63;;
20711;SDS011;10517;50.742;4.224;2022-08-19T13:29:08;3.67;;;2.60;;
20711;SDS011;10517;50.742;4.224;2022-08-19T13:31:53;11.32;;;2.65;;
20711;SDS011;10517;50.742;4.224;2022-08-19T13:34:37;2.30;;;2.20;;
20711;SDS011;10517;50.742;4.224;2022-08-19T13:37:03;2.58;;;2.47;;
20711;SDS011;10517;50.742;4.224;2022-08-19T13:39:30;2.40;;;2.20;;
20711;SDS011;10517;50.742;4.224;2022-08-19T13:41:57;2.30;;;2.20;;
20711;SDS011;10517;50.742;4.224;2022-08-19T13:44:25;2.63;;;2.50;;
20711;SDS011;10517;50.742;4.224;2022-08-19T13:46:51;2.78;;;2.67;;
20711;SDS011;10517;50.742;4.224;2022-08-19T13:49:18;2.55;;;2.38;;
20711;SDS011;10517;50.742;4.224;2022-08-19T13:51:45;2.53;;;2.42;;
20711;SDS011;10517;50.742;4.224;2022-08-19T13:54:11;2.50;;;2.40;;
20711;SDS011;10517;50.742;4.224;2022-08-19T13:56:41;6.40;;;3.10;;
20711;SDS011;10517;50.742;4.224;2022-08-19T13:59:09;4.72;;;2.70;;
20711;SDS011;10517;50.742;4.224;2022-08-19T14:01:35;3.75;;;3.55;;
20711;SDS011;10517;50.742;4.224;2022-08-19T14:04:01;3.20;;;3.00;;
20711;SDS011;10517;50.742;4.224;2022-08-19T14:06:28;3.10;;;2.90;;
20711;SDS011;10517;50.742;4.224;2022-08-19T14:08:54;2.83;;;2.63;;
20711;SDS011;10517;50.742;4.224;2022-08-19T14:11:19;2.63;;;2.42;;
20711;SDS011;10517;50.742;4.224;2022-08-19T14:13:45;3.13;;;2.67;;
20711;SDS011;10517;50.742;4.224;2022-08-19T14:16:11;2.75;;;2.55;;
20711;SDS011;10517;50.742;4.224;2022-08-19T14:18:38;2.53;;;2.42;;
20711;SDS011;10517;50.742;4.224;2022-08-19T14:21:04;3.58;;;2.60;;
20711;SDS011;10517;50.742;4.224;2022-08-19T14:23:31;3.20;;;3.00;;
20711;SDS011;10517;50.742;4.224;2022-08-19T14:26:04;4.95;;;2.70;;
20711;SDS011;10517;50.742;4.224;2022-08-19T14:28:32;2.50;;;2.40;;
20711;SDS011;10517;50.742;4.224;2022-08-19T14:30:58;2.30;;;2.20;;
20711;SDS011;10517;50.742;4.224;2022-08-19T14:33:23;2.38;;;2.20;;
20711;SDS011;10517;50.742;4.224;2022-08-19T14:35:49;2.58;;;2.40;;
20711;SDS011;10517;50.742;4.224;2022-08-19T14:38:15;2.70;;;2.60;;
20711;SDS011;10517;50.742;4.224;2022-08-19T14:40:43;2.53;;;2.33;;
20711;SDS011;10517;50.742;4.224;2022-08-19T14:43:08;3.20;;;3.10;;
20711;SDS011;10517;50.742;4.224;2022-08-19T14:45:35;3.50;;;2.70;;
20711;SDS011;10517;50.742;4.224;2022-08-19T14:48:02;3.05;;;2.85;;
20711;SDS011;10517;50.742;4.224;2022-08-19T14:50:29;3.38;;;3.17;;
20711;SDS011;10517;50.742;4.224;2022-08-19T14:52:59;3.45;;;3.25;;